ダルエスサラーム の空港の天気 - METARとTAF

ジュリウス・ニエレレ国際空港(ダルエスサラーム) ( HTDA / DAR ) - タンザニア ダルエスサラーム
飛行場実況気象(Metar)
観測時間07/17 08:00 EAT (07/17 05:00 UTC)
風向・風速南 5m/s
視程10km以上
天気現象
少しの雲 雲底高度 340m
気温22℃
湿度88%
気圧1020hPa
METARHTDA 170500Z 18010KT 9999 FEW011 22/20 Q1020 NOSIG
過去の天気等 Google飛行場航空写真 Wunderground天気予報

過去48時間のMETAR

飛行場予報(TAF)
発表時間: 7/17 08:00 EAT (7/17 05:00 UTC)
予報対象時間: 17日9時 EAT ~ 18日15時 EAT
風向・風速南 8m/s
視程10km以上
全天の8割程度の雲 雲底高度 550m
17日18時 EAT ~ 17日21時 EAT に徐々に
風向・風速南東 5m/s
少しの雲 雲底高度 460m
TAF HTDA 170500Z 1706/1812 19015KT 9999 BKN018
BECMG 1715/1718 13010KT FEW015